createdAt,value
2019-03-02T00:01:56.019Z,6.30
2019-03-02T00:04:26.026Z,6.30
2019-03-02T00:06:55.863Z,6.30
2019-03-02T00:09:25.739Z,6.30
2019-03-02T00:11:56.479Z,6.30
2019-03-02T00:14:27.067Z,6.20
2019-03-02T00:16:56.995Z,6.20
2019-03-02T00:19:26.956Z,6.20
2019-03-02T00:21:56.702Z,6.20
2019-03-02T00:24:26.620Z,6.20
2019-03-02T00:26:56.591Z,6.20
2019-03-02T00:29:26.436Z,6.20
2019-03-02T00:31:56.256Z,6.20
2019-03-02T00:34:28.696Z,6.20
2019-03-02T00:36:58.599Z,6.20
2019-03-02T00:39:28.465Z,6.20
2019-03-02T00:41:58.756Z,6.10
2019-03-02T00:44:28.661Z,6.20
2019-03-02T00:46:59.599Z,6.20
2019-03-02T00:49:30.338Z,6.30
2019-03-02T00:52:00.339Z,6.30
2019-03-02T00:54:30.198Z,6.30
2019-03-02T00:57:00.074Z,6.20
2019-03-02T00:59:30.020Z,6.20
2019-03-02T01:02:00.758Z,6.20
2019-03-02T01:04:31.427Z,6.20
2019-03-02T01:07:01.350Z,6.20
2019-03-02T01:09:31.174Z,6.20
2019-03-02T01:12:01.077Z,6.30
2019-03-02T01:14:31.857Z,6.20
2019-03-02T01:17:02.543Z,6.20
2019-03-02T01:19:32.398Z,6.20
2019-03-02T01:22:02.230Z,6.20
2019-03-02T01:24:32.119Z,6.20
2019-03-02T01:27:02.080Z,6.20
2019-03-02T01:29:31.953Z,6.20
2019-03-02T01:32:02.157Z,6.30
2019-03-02T01:34:32.038Z,6.20
2019-03-02T01:37:04.798Z,6.10
2019-03-02T01:39:33.406Z,6.10
2019-03-02T01:42:03.242Z,6.10
2019-03-02T01:44:33.063Z,6.10
2019-03-02T01:47:02.908Z,6.10
2019-03-02T01:49:33.499Z,6.10
2019-03-02T01:52:03.409Z,6.10
2019-03-02T01:54:33.226Z,6.10
2019-03-02T01:57:03.053Z,6.10
2019-03-02T01:59:35.402Z,6.10
2019-03-02T02:02:04.778Z,6.10
2019-03-02T02:04:34.595Z,5.90
2019-03-02T02:07:04.694Z,5.70
2019-03-02T02:09:40.195Z,5.60
2019-03-02T02:12:06.168Z,5.60
2019-03-02T02:14:35.994Z,5.50
2019-03-02T02:17:05.971Z,5.60
2019-03-02T02:19:38.621Z,5.50
2019-03-02T02:22:07.513Z,5.60
2019-03-02T02:24:37.463Z,5.50
2019-03-02T02:27:07.359Z,5.60
2019-03-02T02:29:40.634Z,5.50
2019-03-02T02:32:08.949Z,5.50
2019-03-02T02:34:39.146Z,5.50
2019-03-02T02:37:08.888Z,5.50
2019-03-02T02:39:38.750Z,5.50
2019-03-02T02:42:08.668Z,5.40
2019-03-02T02:44:39.192Z,5.40
2019-03-02T02:47:12.525Z,5.40
2019-03-02T02:49:44.394Z,5.40
2019-03-02T02:52:12.666Z,5.40
2019-03-02T02:54:42.572Z,5.40
2019-03-02T02:57:12.442Z,5.40
2019-03-02T02:59:42.297Z,5.40
2019-03-02T03:02:12.478Z,5.40
2019-03-02T03:04:42.289Z,5.40
2019-03-02T03:07:13.879Z,5.40
2019-03-02T03:10:06.081Z,5.40
2019-03-02T03:12:35.892Z,5.40
2019-03-02T03:15:06.280Z,5.40
2019-03-02T03:17:36.193Z,5.40
2019-03-02T03:20:10.369Z,5.40
2019-03-02T03:22:40.826Z,5.40
2019-03-02T03:25:13.974Z,5.40
2019-03-02T03:27:41.165Z,5.40
2019-03-02T03:30:13.187Z,5.40
2019-03-02T03:32:54.530Z,5.40
2019-03-02T03:35:17.114Z,5.40
2019-03-02T03:37:50.491Z,5.40
2019-03-02T03:40:20.164Z,5.40
2019-03-02T03:42:49.623Z,5.40
2019-03-02T03:45:19.792Z,5.40
2019-03-02T03:47:49.692Z,5.40
2019-03-02T03:50:19.804Z,5.40
2019-03-02T03:52:50.569Z,5.40
2019-03-02T03:55:24.982Z,5.50
2019-03-02T03:57:55.446Z,5.40
2019-03-02T04:00:23.940Z,5.40
2019-03-02T04:02:54.028Z,5.50
2019-03-02T04:05:23.855Z,5.50
2019-03-02T04:07:53.869Z,5.50
2019-03-02T04:10:25.822Z,5.50
2019-03-02T04:13:03.910Z,5.50
2019-03-02T04:15:26.793Z,5.50
2019-03-02T04:17:56.676Z,5.50
2019-03-02T04:20:32.699Z,5.50
2019-03-02T04:23:04.569Z,5.50
2019-03-02T04:25:34.425Z,5.50
2019-03-02T04:28:04.463Z,5.50
2019-03-02T04:30:34.354Z,5.40
2019-03-02T04:33:06.001Z,5.40
2019-03-02T04:35:35.863Z,5.30
2019-03-02T04:38:06.989Z,5.30
2019-03-02T04:40:36.791Z,5.30
2019-03-02T04:43:06.689Z,5.30
2019-03-02T04:45:39.671Z,5.30
2019-03-02T04:48:11.226Z,5.30
2019-03-02T04:50:41.019Z,5.30
2019-03-02T04:53:10.971Z,5.20
2019-03-02T04:55:40.995Z,5.20
2019-03-02T04:58:11.997Z,5.20
2019-03-02T05:00:42.632Z,5.30
2019-03-02T05:03:12.473Z,5.20
2019-03-02T05:05:43.414Z,5.30
2019-03-02T05:08:13.372Z,5.30
2019-03-02T05:10:43.142Z,5.30
2019-03-02T05:13:13.390Z,5.30
2019-03-02T05:15:43.242Z,5.40
2019-03-02T05:18:14.724Z,5.30
2019-03-02T05:20:44.574Z,5.30
2019-03-02T05:23:14.584Z,5.40
2019-03-02T05:25:44.331Z,5.40
2019-03-02T05:28:14.304Z,5.40
2019-03-02T05:30:44.205Z,5.40
2019-03-02T05:33:14.437Z,5.40
2019-03-02T05:35:47.680Z,5.40
2019-03-02T05:38:16.115Z,5.40
2019-03-02T05:40:46.086Z,5.40
2019-03-02T05:43:15.897Z,5.40
2019-03-02T05:45:45.782Z,5.40
2019-03-02T05:48:15.602Z,5.40
2019-03-02T05:50:45.780Z,5.30
2019-03-02T05:53:15.680Z,5.30
2019-03-02T05:55:49.819Z,5.40
2019-03-02T05:58:18.043Z,5.40
2019-03-02T06:00:47.860Z,5.40
2019-03-02T06:03:18.809Z,5.40
2019-03-02T06:05:48.758Z,5.40
2019-03-02T06:08:18.741Z,5.40
2019-03-02T06:10:48.767Z,5.30
2019-03-02T06:13:18.923Z,5.20
2019-03-02T06:15:48.902Z,5.20
2019-03-02T06:18:18.765Z,5.10
2019-03-02T06:20:48.646Z,5.20
2019-03-02T06:23:18.715Z,5.10
2019-03-02T06:25:48.560Z,5.10
2019-03-02T06:28:19.595Z,5.10
2019-03-02T06:30:49.850Z,5.10
2019-03-02T06:33:32.719Z,5.00
2019-03-02T06:36:04.866Z,5.10
2019-03-02T06:38:34.139Z,5.10
2019-03-02T06:41:04.111Z,5.10
2019-03-02T06:43:33.930Z,5.10
2019-03-02T06:46:03.842Z,5.10
2019-03-02T06:48:33.843Z,5.10
2019-03-02T06:51:03.731Z,5.10
2019-03-02T06:53:33.974Z,5.10
2019-03-02T06:56:05.238Z,5.10
2019-03-02T06:58:35.033Z,5.20
2019-03-02T07:01:04.880Z,5.10
2019-03-02T07:03:35.061Z,5.20
2019-03-02T07:06:04.947Z,5.20
2019-03-02T07:08:36.319Z,5.20
2019-03-02T07:11:06.330Z,5.30
2019-03-02T07:13:36.172Z,5.30
2019-03-02T07:16:06.014Z,5.30
2019-03-02T07:18:42.382Z,5.30
2019-03-02T07:21:13.846Z,5.40
2019-03-02T07:23:43.792Z,5.40
2019-03-02T07:26:15.824Z,5.40
2019-03-02T07:28:45.200Z,5.40
2019-03-02T07:31:15.038Z,5.40
2019-03-02T07:33:44.943Z,5.40
2019-03-02T07:36:14.808Z,5.40
2019-03-02T07:38:44.853Z,5.50
2019-03-02T07:41:14.630Z,5.40
2019-03-02T07:43:46.424Z,5.50
2019-03-02T07:46:16.123Z,5.50
2019-03-02T07:48:46.144Z,5.50
2019-03-02T07:51:15.962Z,5.50
2019-03-02T07:53:45.854Z,5.60
2019-03-02T07:56:16.573Z,5.60
2019-03-02T07:58:46.448Z,5.60
2019-03-02T08:01:16.634Z,5.60
2019-03-02T08:03:48.178Z,5.60
2019-03-02T08:06:18.065Z,5.60
2019-03-02T08:08:49.228Z,5.70
2019-03-02T08:11:19.805Z,5.60
2019-03-02T08:13:49.698Z,5.60
2019-03-02T08:16:19.730Z,5.70
2019-03-02T08:18:49.991Z,5.60
2019-03-02T08:21:19.877Z,5.70
2019-03-02T08:23:49.730Z,5.70
2019-03-02T08:26:19.554Z,5.70
2019-03-02T08:28:50.883Z,5.60
2019-03-02T08:31:20.945Z,5.70
2019-03-02T08:33:50.838Z,5.60
2019-03-02T08:36:20.739Z,5.60
2019-03-02T08:38:51.202Z,5.60
2019-03-02T08:41:21.531Z,5.70
2019-03-02T08:43:51.471Z,5.70
2019-03-02T08:46:21.560Z,5.70
2019-03-02T08:48:51.462Z,5.70
2019-03-02T08:51:21.673Z,5.70
2019-03-02T08:53:54.015Z,5.70
2019-03-02T08:56:24.053Z,5.70
2019-03-02T08:58:54.003Z,5.70
2019-03-02T09:01:23.944Z,5.70
2019-03-02T09:03:54.004Z,5.80
2019-03-02T09:06:26.550Z,5.90
2019-03-02T09:08:56.383Z,5.90
2019-03-02T09:11:26.317Z,5.90
2019-03-02T09:13:56.174Z,5.90
2019-03-02T09:16:26.438Z,5.90
2019-03-02T09:18:56.374Z,5.90
2019-03-02T09:21:26.314Z,6.00
2019-03-02T09:23:56.179Z,5.90
2019-03-02T09:26:26.285Z,5.90
2019-03-02T09:28:57.489Z,6.00
2019-03-02T09:31:27.428Z,6.00
2019-03-02T09:34:01.098Z,6.00
2019-03-02T09:36:31.282Z,6.00
2019-03-02T09:39:00.790Z,6.10
2019-03-02T09:41:30.662Z,6.10
2019-03-02T09:44:01.838Z,6.10
2019-03-02T09:46:31.894Z,6.10
2019-03-02T09:49:02.124Z,6.10
2019-03-02T09:51:32.287Z,6.10
2019-03-02T09:54:02.139Z,6.20
2019-03-02T09:56:32.112Z,6.20
2019-03-02T09:59:03.017Z,6.30
2019-03-02T10:01:35.695Z,6.40
2019-03-02T10:04:06.154Z,6.50
2019-03-02T10:06:36.267Z,6.50
2019-03-02T10:09:07.836Z,6.50
2019-03-02T10:11:37.640Z,6.50
2019-03-02T10:14:26.816Z,6.50
2019-03-02T10:16:57.805Z,6.50
2019-03-02T10:19:30.267Z,6.50
2019-03-02T10:22:00.353Z,6.50
2019-03-02T10:24:31.400Z,6.50
2019-03-02T10:27:01.284Z,6.60
2019-03-02T10:29:32.381Z,6.50
2019-03-02T10:32:04.379Z,6.60
2019-03-02T10:34:34.345Z,6.60
2019-03-02T10:37:07.218Z,6.60
2019-03-02T10:39:36.391Z,6.60
2019-03-02T10:42:06.637Z,6.70
2019-03-02T10:44:38.646Z,6.80
2019-03-02T10:47:11.202Z,6.80
2019-03-02T10:49:44.679Z,6.80
2019-03-02T10:52:14.482Z,6.80
2019-03-02T10:54:45.895Z,6.90
2019-03-02T10:57:15.859Z,6.90
2019-03-02T10:59:51.804Z,7.00
2019-03-02T11:02:28.386Z,7.10
2019-03-02T11:05:01.947Z,7.20
2019-03-02T11:07:44.826Z,7.20
2019-03-02T11:10:26.359Z,7.20
2019-03-02T11:13:19.295Z,7.30
2019-03-02T11:16:23.890Z,7.40
2019-03-02T11:19:12.898Z,7.40
2019-03-02T11:22:04.959Z,7.40
2019-03-02T11:24:55.395Z,7.40
2019-03-02T11:27:35.274Z,7.50
2019-03-02T11:30:39.859Z,7.40
2019-03-02T11:33:38.844Z,7.40
2019-03-02T11:36:33.520Z,7.40
2019-03-02T11:39:13.839Z,7.40
2019-03-02T11:42:04.017Z,7.30
2019-03-02T11:44:58.764Z,7.40
2019-03-02T11:47:46.141Z,7.40
2019-03-02T11:50:33.294Z,7.40
2019-03-02T11:53:27.931Z,7.40
2019-03-02T11:56:24.937Z,7.50
2019-03-02T11:59:06.037Z,7.40
2019-03-02T12:01:53.964Z,7.40
2019-03-02T12:04:41.534Z,7.30
2019-03-02T12:07:45.600Z,7.30
2019-03-02T12:10:26.415Z,7.30
2019-03-02T12:13:15.224Z,7.30
2019-03-02T12:16:01.648Z,7.40
2019-03-02T12:18:39.065Z,7.40
2019-03-02T12:21:34.317Z,7.30
2019-03-02T12:24:23.342Z,7.40
2019-03-02T12:27:23.912Z,7.40
2019-03-02T12:30:12.691Z,7.40
2019-03-02T12:33:01.585Z,7.40
2019-03-02T12:35:49.897Z,7.60
2019-03-02T12:38:29.551Z,7.60
2019-03-02T12:41:15.727Z,7.60
2019-03-02T12:44:17.405Z,7.60
2019-03-02T12:47:07.188Z,7.70
2019-03-02T12:50:04.808Z,7.60
2019-03-02T12:52:58.160Z,7.70
2019-03-02T12:55:56.918Z,7.70
2019-03-02T12:59:01.638Z,7.90
2019-03-02T13:01:58.474Z,7.90
2019-03-02T13:04:51.462Z,7.90
2019-03-02T13:07:33.845Z,8.00
2019-03-02T13:10:15.074Z,8.00
2019-03-02T13:13:16.965Z,8.00
2019-03-02T13:16:06.725Z,8.10
2019-03-02T13:18:51.637Z,8.10
2019-03-02T13:21:43.450Z,8.20
2019-03-02T13:24:32.793Z,8.30
2019-03-02T13:27:25.045Z,8.30
2019-03-02T13:30:16.944Z,8.30
2019-03-02T13:33:11.816Z,8.30
2019-03-02T13:35:59.867Z,8.40
2019-03-02T13:38:29.971Z,8.40
2019-03-02T13:41:10.659Z,8.40
2019-03-02T13:43:50.594Z,8.40
2019-03-02T13:46:39.260Z,8.50
2019-03-02T13:49:39.954Z,8.60
2019-03-02T13:52:31.572Z,8.50
2019-03-02T13:55:23.436Z,8.50
2019-03-02T13:58:14.306Z,8.50
2019-03-02T14:00:52.394Z,8.50
2019-03-02T14:03:38.328Z,8.50
2019-03-02T14:06:26.980Z,8.50
2019-03-02T14:09:16.243Z,8.60
2019-03-02T14:12:07.263Z,8.70
2019-03-02T14:14:55.962Z,8.70
2019-03-02T14:17:51.489Z,8.70
2019-03-02T14:20:50.003Z,8.70
2019-03-02T14:23:36.863Z,8.70
2019-03-02T14:26:19.425Z,8.70
2019-03-02T14:29:01.776Z,8.80
2019-03-02T14:31:37.937Z,8.80
2019-03-02T14:34:23.553Z,8.90
2019-03-02T14:37:01.096Z,8.80
2019-03-02T14:39:48.344Z,8.80
2019-03-02T14:42:46.027Z,8.80
2019-03-02T14:45:43.032Z,8.90
2019-03-02T14:48:31.428Z,8.90
2019-03-02T14:51:22.107Z,8.90
2019-03-02T14:54:02.976Z,8.90
2019-03-02T14:56:48.309Z,8.90
2019-03-02T14:59:41.972Z,8.90
2019-03-02T15:02:39.785Z,8.90
2019-03-02T15:05:27.097Z,8.90
2019-03-02T15:08:07.428Z,8.90
2019-03-02T15:10:53.702Z,8.90
2019-03-02T15:13:41.234Z,9.00
2019-03-02T15:16:36.596Z,8.90
2019-03-02T15:19:55.924Z,8.90
2019-03-02T15:22:43.425Z,8.90
2019-03-02T15:25:26.181Z,8.90
2019-03-02T15:28:16.311Z,8.90
2019-03-02T15:31:11.447Z,8.90
2019-03-02T15:34:06.036Z,9.00
2019-03-02T15:36:53.181Z,8.90
2019-03-02T15:39:49.391Z,8.90
2019-03-02T15:42:44.315Z,8.90
2019-03-02T15:45:41.928Z,9.00
2019-03-02T15:48:30.626Z,9.00
2019-03-02T15:51:06.971Z,9.00
2019-03-02T15:53:56.575Z,8.90
2019-03-02T15:56:34.307Z,8.80
2019-03-02T15:59:15.439Z,8.80
2019-03-02T16:02:05.611Z,8.80
2019-03-02T16:05:07.888Z,8.70
2019-03-02T16:08:00.091Z,8.60
2019-03-02T16:10:47.356Z,8.50
2019-03-02T16:13:34.854Z,8.50
2019-03-02T16:16:28.791Z,8.40
2019-03-02T16:19:19.528Z,8.30
2019-03-02T16:21:58.492Z,8.30
2019-03-02T16:24:57.017Z,8.20
2019-03-02T16:28:05.733Z,8.20
2019-03-02T16:30:55.735Z,8.10
2019-03-02T16:33:55.827Z,8.10
2019-03-02T16:37:02.562Z,8.10
2019-03-02T16:39:54.456Z,8.10
2019-03-02T16:42:45.125Z,8.10
2019-03-02T16:45:26.340Z,8.20
2019-03-02T16:48:17.834Z,8.20
2019-03-02T16:51:12.754Z,8.20
2019-03-02T16:54:07.483Z,8.20
2019-03-02T16:57:05.132Z,8.10
2019-03-02T16:59:45.360Z,8.00
2019-03-02T17:02:36.691Z,7.90
2019-03-02T17:05:17.093Z,7.80
2019-03-02T17:07:58.649Z,7.80
2019-03-02T17:10:38.572Z,7.70
2019-03-02T17:13:32.069Z,7.70
2019-03-02T17:16:36.780Z,7.70
2019-03-02T17:19:28.266Z,7.70
2019-03-02T17:22:05.987Z,7.70
2019-03-02T17:24:58.215Z,7.70
2019-03-02T17:27:59.731Z,7.70
2019-03-02T17:30:39.518Z,7.60
2019-03-02T17:33:26.893Z,7.60
2019-03-02T17:36:20.307Z,7.70
2019-03-02T17:39:15.274Z,7.70
2019-03-02T17:42:03.558Z,7.70
2019-03-02T17:44:42.398Z,7.70
2019-03-02T17:47:31.228Z,7.70
2019-03-02T17:50:19.755Z,7.70
2019-03-02T17:52:57.560Z,7.80
2019-03-02T17:55:46.342Z,7.80
2019-03-02T17:58:48.038Z,7.70
2019-03-02T18:01:32.270Z,7.70
2019-03-02T18:04:13.109Z,7.60
2019-03-02T18:07:00.476Z,7.60
2019-03-02T18:09:45.412Z,7.50
2019-03-02T18:12:40.393Z,7.60
2019-03-02T18:15:32.108Z,7.70
2019-03-02T18:18:06.330Z,7.70
2019-03-02T18:20:36.727Z,7.80
2019-03-02T18:23:07.410Z,7.80
2019-03-02T18:25:37.435Z,7.80
2019-03-02T18:28:10.021Z,7.80
2019-03-02T18:30:42.304Z,7.80
2019-03-02T18:33:28.774Z,7.80
2019-03-02T18:36:00.201Z,7.70
2019-03-02T18:38:31.132Z,7.70
2019-03-02T18:41:02.813Z,7.70
2019-03-02T18:43:34.802Z,7.70
2019-03-02T18:46:05.630Z,7.70
2019-03-02T18:49:14.987Z,7.70
2019-03-02T18:52:03.580Z,7.70
2019-03-02T18:54:34.512Z,7.60
2019-03-02T18:57:05.140Z,7.50
2019-03-02T18:59:36.217Z,7.50
2019-03-02T19:02:11.726Z,7.50
2019-03-02T19:04:39.905Z,7.60
2019-03-02T19:07:11.334Z,7.60
2019-03-02T19:09:41.822Z,7.60
2019-03-02T19:12:12.610Z,7.60
2019-03-02T19:14:43.173Z,7.60
2019-03-02T19:17:13.684Z,7.60
2019-03-02T19:19:43.838Z,7.60
2019-03-02T19:22:14.021Z,7.70
2019-03-02T19:24:43.862Z,7.70
2019-03-02T19:27:13.722Z,7.70
2019-03-02T19:29:43.891Z,7.70
2019-03-02T19:32:13.967Z,7.60
2019-03-02T19:34:44.121Z,7.60
2019-03-02T19:37:14.560Z,7.60
2019-03-02T19:39:44.610Z,7.60
2019-03-02T19:42:14.698Z,7.60
2019-03-02T19:44:44.689Z,7.70
2019-03-02T19:47:14.602Z,7.60
2019-03-02T19:49:44.563Z,7.60
2019-03-02T19:52:14.567Z,7.50
2019-03-02T19:54:47.166Z,7.50
2019-03-02T19:57:17.295Z,7.40
2019-03-02T19:59:52.614Z,7.40
2019-03-02T20:02:22.946Z,7.40
2019-03-02T20:04:53.023Z,7.20
2019-03-02T20:07:23.311Z,7.20
2019-03-02T20:09:54.603Z,7.10
2019-03-02T20:12:27.230Z,7.10
2019-03-02T20:14:57.450Z,7.10
2019-03-02T20:17:27.618Z,7.10
2019-03-02T20:19:57.952Z,6.90
2019-03-02T20:22:28.177Z,6.90
2019-03-02T20:24:58.211Z,6.90
2019-03-02T20:27:28.274Z,6.90
2019-03-02T20:29:59.475Z,7.00
2019-03-02T20:32:29.858Z,6.90
2019-03-02T20:35:00.270Z,6.90
2019-03-02T20:37:30.230Z,6.80
2019-03-02T20:40:00.256Z,6.70
2019-03-02T20:42:30.157Z,6.70
2019-03-02T20:45:00.320Z,6.70
2019-03-02T20:47:30.389Z,6.60
2019-03-02T20:50:00.543Z,6.70
2019-03-02T20:52:30.963Z,6.70
2019-03-02T20:55:01.405Z,6.60
2019-03-02T20:57:31.855Z,6.50
2019-03-02T21:00:04.333Z,6.50
2019-03-02T21:02:34.429Z,6.50
2019-03-02T21:05:06.244Z,6.40
2019-03-02T21:07:36.553Z,6.40
2019-03-02T21:10:08.355Z,6.40
2019-03-02T21:12:38.294Z,6.40
2019-03-02T21:15:12.675Z,6.30
2019-03-02T21:17:42.983Z,6.40
2019-03-02T21:20:14.140Z,6.40
2019-03-02T21:22:45.977Z,6.40
2019-03-02T21:25:16.778Z,6.50
2019-03-02T21:27:48.279Z,6.60
2019-03-02T21:30:19.712Z,6.70
2019-03-02T21:32:50.107Z,6.80
2019-03-02T21:35:20.285Z,6.90
2019-03-02T21:37:51.554Z,6.90
2019-03-02T21:40:22.379Z,6.90
2019-03-02T21:42:52.752Z,6.90
2019-03-02T21:45:23.230Z,6.90
2019-03-02T21:47:53.688Z,6.90
2019-03-02T21:50:25.667Z,7.00
2019-03-02T21:52:56.591Z,7.00
2019-03-02T21:55:26.456Z,7.10
2019-03-02T21:57:56.354Z,7.10
2019-03-02T22:00:27.034Z,7.20
2019-03-02T22:02:56.907Z,7.10
2019-03-02T22:05:26.886Z,7.10
2019-03-02T22:07:57.116Z,7.10
2019-03-02T22:10:30.900Z,7.10
2019-03-02T22:13:03.886Z,7.10
2019-03-02T22:15:34.659Z,7.20
2019-03-02T22:18:05.822Z,7.10
2019-03-02T22:20:36.466Z,7.10
2019-03-02T22:23:08.865Z,7.20
2019-03-02T22:25:42.275Z,7.20
2019-03-02T22:28:14.770Z,7.30
2019-03-02T22:30:45.088Z,7.30
2019-03-02T22:33:15.090Z,7.30
2019-03-02T22:35:46.469Z,7.30
2019-03-02T22:38:16.734Z,7.30
2019-03-02T22:40:49.521Z,7.40
2019-03-02T22:43:19.678Z,7.40
2019-03-02T22:45:52.587Z,7.40
2019-03-02T22:48:22.777Z,7.30
2019-03-02T22:50:54.311Z,7.30
2019-03-02T22:53:24.522Z,7.40
2019-03-02T22:55:54.463Z,7.30
2019-03-02T22:58:31.605Z,7.30
2019-03-02T23:01:34.692Z,7.30
2019-03-02T23:04:05.076Z,7.30
2019-03-02T23:06:35.433Z,7.30
2019-03-02T23:09:09.743Z,7.30
2019-03-02T23:11:39.662Z,7.30
2019-03-02T23:14:09.525Z,7.40
2019-03-02T23:16:39.587Z,7.40
2019-03-02T23:19:09.525Z,7.50
2019-03-02T23:21:39.451Z,7.60
2019-03-02T23:24:09.459Z,7.50
2019-03-02T23:26:39.262Z,7.40
2019-03-02T23:29:09.548Z,7.40
2019-03-02T23:31:39.253Z,7.30
2019-03-02T23:34:09.298Z,7.30
2019-03-02T23:36:39.137Z,7.30
2019-03-02T23:39:09.490Z,7.40
2019-03-02T23:41:39.330Z,7.30
2019-03-02T23:44:09.174Z,7.30
2019-03-02T23:46:38.915Z,7.30
2019-03-02T23:49:08.739Z,7.30
2019-03-02T23:51:38.594Z,7.20
2019-03-02T23:54:08.481Z,7.20
2019-03-02T23:56:38.348Z,7.20
2019-03-02T23:59:08.287Z,7.20
